Time;durP1;ratioP1;P1;durP2;ratioP2;P2;SDS_P1;SDS_P2;PMS_P1;PMS_P2;Temp;Humidity;BMP_temperature;BMP_pressure;BME280_temperature;BME280_humidity;BME280_pressure;Samples;Min_cycle;Max_cycle;Signal;HPM_P1;HPM_P2
2021/10/29 00:01:09;;;;;;;12.30;7.93;;;14.00;99.90;;;13.49;100.00;99887.19;4146489;28;20049;-78
2021/10/29 00:03:10;;;;;;;10.85;7.50;;;14.00;99.90;;;13.48;100.00;99890.03;4150332;28;20018;-78
2021/10/29 00:05:11;;;;;;;12.18;7.57;;;14.00;99.90;;;13.44;100.00;99889.59;4138945;28;20022;-78
2021/10/29 00:07:12;;;;;;;10.05;6.80;;;14.00;99.90;;;13.38;100.00;99882.44;4150608;28;20481;-78
2021/10/29 00:09:13;;;;;;;12.90;7.45;;;14.00;99.90;;;13.41;100.00;99886.53;4149044;28;20025;-78
2021/10/29 00:11:14;;;;;;;14.00;7.80;;;14.00;99.90;;;13.40;100.00;99880.44;4150907;28;20085;-78
2021/10/29 00:13:15;;;;;;;11.43;7.40;;;13.90;99.90;;;13.38;100.00;99871.03;4153476;28;20052;-78
2021/10/29 00:15:16;;;;;;;10.18;6.00;;;14.00;99.90;;;13.37;100.00;99874.69;4153533;28;20026;-78
2021/10/29 00:17:18;;;;;;;9.55;6.47;;;13.90;99.90;;;13.31;100.00;99878.94;4154685;28;20022;-78
2021/10/29 00:19:19;;;;;;;9.30;6.60;;;13.90;99.90;;;13.32;100.00;99871.81;4153475;28;20198;-78
2021/10/29 00:21:20;;;;;;;8.65;6.35;;;13.90;99.90;;;13.32;100.00;99875.25;4137031;28;20029;-78
2021/10/29 00:23:22;;;;;;;9.13;7.40;;;13.90;99.90;;;13.32;100.00;99850.63;4153449;28;20030;-78
2021/10/29 00:25:23;;;;;;;10.00;7.25;;;13.80;99.90;;;13.31;100.00;99849.81;4154273;28;20104;-78
2021/10/29 00:27:24;;;;;;;9.93;6.72;;;13.80;99.90;;;13.34;100.00;99845.94;4153216;28;20516;-78
2021/10/29 00:29:25;;;;;;;10.15;6.95;;;13.80;99.90;;;13.39;100.00;99847.00;4153079;28;20064;-78
2021/10/29 00:31:26;;;;;;;9.27;6.78;;;13.80;99.90;;;13.20;100.00;99845.84;4153309;28;20029;-78
2021/10/29 00:33:28;;;;;;;9.95;7.28;;;13.80;99.90;;;13.16;100.00;99862.34;4154447;28;20397;-78
2021/10/29 00:35:29;;;;;;;10.95;8.07;;;13.80;99.90;;;13.29;100.00;99875.66;4154279;28;20026;-78
2021/10/29 00:37:37;;;;;;;10.02;7.70;;;13.70;99.90;;;13.23;100.00;99869.31;4154226;28;20022;-78
2021/10/29 00:39:38;;;;;;;14.35;7.40;;;13.70;99.90;;;13.29;100.00;99868.53;4153269;28;20022;-78
2021/10/29 00:41:39;;;;;;;8.30;6.38;;;13.80;99.90;;;13.33;100.00;99876.91;4152849;28;20104;-78
2021/10/29 00:43:40;;;;;;;8.80;6.32;;;13.80;99.90;;;13.37;100.00;99872.03;4153101;28;20026;-78
2021/10/29 00:45:41;;;;;;;9.13;6.57;;;13.90;99.90;;;13.31;100.00;99860.41;4154126;28;20105;-78
2021/10/29 00:47:42;;;;;;;11.00;6.85;;;13.90;99.90;;;13.46;100.00;99860.28;4152876;28;20398;-78
2021/10/29 00:49:43;;;;;;;11.70;6.40;;;13.90;99.90;;;13.46;100.00;99874.34;4154225;28;20041;-78
2021/10/29 00:51:44;;;;;;;11.50;7.13;;;13.90;99.90;;;13.32;100.00;99866.53;4153979;28;20034;-77
2021/10/29 00:53:46;;;;;;;10.52;6.40;;;13.90;99.90;;;13.36;100.00;99860.63;4152786;28;20088;-78
2021/10/29 00:55:47;;;;;;;10.25;6.65;;;13.90;99.90;;;13.34;100.00;99867.13;4152629;28;20041;-78
2021/10/29 00:57:51;;;;;;;13.05;6.57;;;13.90;99.90;;;13.48;100.00;99859.06;4152872;28;20024;-78
2021/10/29 00:59:52;;;;;;;8.98;6.55;;;13.90;99.90;;;13.50;100.00;99853.59;4152954;28;20026;-78
2021/10/29 01:01:52;;;;;;;9.90;5.93;;;13.90;99.90;;;13.61;100.00;99853.84;4151358;28;20547;-78
2021/10/29 01:03:53;;;;;;;8.35;5.65;;;14.00;99.90;;;13.65;100.00;99841.03;4143453;28;20021;-78
2021/10/29 01:05:55;;;;;;;11.52;6.40;;;14.10;99.90;;;13.60;100.00;99840.78;4152714;28;20405;-78
2021/10/29 01:08:00;;;;;;;12.00;6.38;;;14.10;99.90;;;13.52;100.00;99836.47;4138133;28;20477;-78
2021/10/29 01:10:01;;;;;;;10.10;6.32;;;14.10;99.90;;;13.58;100.00;99833.03;4167963;28;20033;-78
2021/10/29 01:12:04;;;;;;;10.02;6.25;;;14.20;99.90;;;13.53;100.00;99826.69;4142826;28;20038;-77
2021/10/29 01:14:05;;;;;;;10.88;5.78;;;14.10;99.90;;;13.48;100.00;99815.84;4153624;28;20026;-78
2021/10/29 01:16:07;;;;;;;11.25;5.13;;;14.00;99.90;;;13.42;100.00;99792.78;4136146;28;20616;-78
2021/10/29 01:18:08;;;;;;;11.18;5.95;;;14.00;99.90;;;13.51;100.00;99807.50;4153519;28;20022;-78
2021/10/29 01:20:09;;;;;;;10.30;5.75;;;14.00;99.90;;;13.40;100.00;99806.25;4153123;28;20112;-78
2021/10/29 01:22:10;;;;;;;12.32;5.18;;;14.00;99.90;;;13.43;100.00;99789.97;4153765;28;20029;-78
2021/10/29 01:24:11;;;;;;;10.82;6.25;;;13.90;99.90;;;13.40;100.00;99778.94;4153768;28;20026;-79
2021/10/29 01:26:16;;;;;;;10.07;6.03;;;14.00;99.90;;;13.53;100.00;99779.00;4153180;28;20041;-78
2021/10/29 01:28:17;;;;;;;10.88;5.82;;;14.00;99.90;;;13.53;100.00;99779.78;4152403;28;20053;-79
2021/10/29 01:30:18;;;;;;;8.52;5.43;;;14.00;99.90;;;13.54;100.00;99783.25;4153354;28;20029;-78
2021/10/29 01:32:21;;;;;;;9.90;5.82;;;14.00;99.90;;;13.47;100.00;99788.53;4152121;28;20493;-78
2021/10/29 01:34:22;;;;;;;12.80;6.25;;;14.00;99.90;;;13.27;100.00;99800.88;4152086;28;20033;-78
2021/10/29 01:36:23;;;;;;;10.38;6.20;;;14.00;99.90;;;13.32;100.00;99820.47;4152119;28;20560;-79
2021/10/29 01:38:45;;;;;;;15.20;6.85;;;13.90;99.90;;;13.19;100.00;99814.28;4153394;28;20070;-78
2021/10/29 01:40:46;;;;;;;14.93;6.50;;;13.90;99.90;;;13.32;100.00;99810.91;4135428;28;20035;-78
2021/10/29 01:42:48;;;;;;;11.27;6.22;;;13.90;99.90;;;13.41;100.00;99813.16;4152173;28;20036;-78
2021/10/29 01:44:49;;;;;;;13.43;6.95;;;13.90;99.90;;;13.43;100.00;99805.84;4153264;28;20040;-79
2021/10/29 01:46:50;;;;;;;16.90;7.47;;;14.00;99.90;;;13.41;100.00;99809.72;4153252;28;20030;-79
2021/10/29 01:48:53;;;;;;;12.98;6.43;;;14.00;99.90;;;13.44;100.00;99809.34;4151918;28;20520;-79
2021/10/29 01:50:53;;;;;;;14.85;7.70;;;14.00;99.90;;;13.54;100.00;99809.75;4135748;28;20489;-78
2021/10/29 01:52:55;;;;;;;12.45;6.70;;;14.10;99.90;;;13.54;100.00;99802.63;4151735;28;20074;-79
2021/10/29 01:54:56;;;;;;;12.38;7.65;;;14.10;99.90;;;13.59;100.00;99805.50;4151594;28;20035;-79
2021/10/29 01:56:58;;;;;;;11.80;6.03;;;14.10;99.90;;;13.64;100.00;99810.22;4152967;28;20032;-79
2021/10/29 01:59:00;;;;;;;12.70;7.32;;;14.10;99.90;;;13.70;100.00;99804.13;4151875;28;20022;-79
2021/10/29 02:01:02;;;;;;;14.55;7.80;;;14.20;99.90;;;13.63;100.00;99809.41;4153170;28;20040;-79
2021/10/29 02:03:03;;;;;;;12.90;6.05;;;14.20;99.90;;;13.56;100.00;99791.84;4139520;28;20053;-79
2021/10/29 02:05:05;;;;;;;11.48;7.22;;;14.20;99.90;;;13.65;100.00;99806.56;4150898;28;20025;-79
2021/10/29 02:07:06;;;;;;;14.02;7.63;;;14.20;99.90;;;13.63;100.00;99795.31;4157411;28;20061;-79
2021/10/29 02:09:07;;;;;;;12.90;6.20;;;14.20;99.90;;;13.75;100.00;99783.13;4175663;28;20098;-79
2021/10/29 02:11:08;;;;;;;12.85;6.50;;;14.20;99.90;;;13.77;100.00;99781.09;4167770;28;20029;-79
2021/10/29 02:13:09;;;;;;;17.23;7.25;;;14.20;99.90;;;13.76;100.00;99779.47;4151602;28;20034;-79
2021/10/29 02:15:10;;;;;;;17.15;6.43;;;14.30;99.90;;;13.69;100.00;99765.38;4151789;28;20030;-78
2021/10/29 02:17:11;;;;;;;30.85;7.82;;;14.20;99.90;;;13.55;100.00;99771.66;4151786;28;20026;-79
2021/10/29 02:19:12;;;;;;;14.63;6.97;;;14.20;99.90;;;13.52;100.00;99766.75;4151802;28;20053;-79
2021/10/29 02:21:13;;;;;;;14.63;7.00;;;14.10;99.90;;;13.60;100.00;99763.94;4152677;28;20069;-79
2021/10/29 02:23:15;;;;;;;20.60;7.53;;;14.20;99.90;;;13.65;100.00;99769.47;4146806;28;20046;-79
2021/10/29 02:25:16;;;;;;;13.13;6.82;;;14.20;99.90;;;13.66;100.00;99763.94;4143030;28;20034;-79
2021/10/29 02:27:17;;;;;;;12.02;7.15;;;14.20;99.90;;;13.66;100.00;99774.56;4146338;28;20485;-79
2021/10/29 02:29:18;;;;;;;22.63;7.53;;;14.20;99.90;;;13.66;100.00;99756.00;4150723;28;20037;-79
2021/10/29 02:31:19;;;;;;;20.55;8.10;;;14.20;99.90;;;13.68;100.00;99763.75;4152061;28;20033;-79
2021/10/29 02:33:20;;;;;;;15.00;7.65;;;14.20;99.90;;;13.70;100.00;99761.72;4151409;28;20157;-79
2021/10/29 02:35:21;;;;;;;14.38;6.72;;;14.20;99.90;;;13.67;100.00;99749.69;4146045;28;20037;-79
2021/10/29 02:37:22;;;;;;;16.40;7.47;;;14.20;99.90;;;13.69;100.00;99752.13;4149387;28;20022;-79
2021/10/29 02:39:23;;;;;;;17.35;8.07;;;14.20;99.90;;;13.52;100.00;99748.22;4151447;28;20030;-79
2021/10/29 02:41:25;;;;;;;17.80;7.20;;;14.20;99.90;;;13.50;100.00;99756.34;4151060;28;20068;-79
2021/10/29 02:43:25;;;;;;;19.40;8.90;;;14.10;99.90;;;13.47;100.00;99742.72;4145951;28;20484;-79
2021/10/29 02:45:26;;;;;;;13.77;7.90;;;14.10;99.90;;;13.56;100.00;99744.16;4149991;28;20037;-79
2021/10/29 02:47:27;;;;;;;19.17;8.27;;;14.10;99.90;;;13.62;100.00;99746.81;4151391;28;20022;-79
2021/10/29 02:49:28;;;;;;;21.05;8.35;;;14.20;99.90;;;13.61;100.00;99739.88;4142236;28;20030;-79
2021/10/29 02:51:30;;;;;;;12.27;7.07;;;14.20;99.90;;;13.51;100.00;99738.63;4145248;28;20061;-78
2021/10/29 02:53:31;;;;;;;19.08;8.35;;;14.10;99.90;;;13.53;100.00;99723.38;4183837;28;20052;-79
2021/10/29 02:55:32;;;;;;;22.05;8.38;;;14.20;99.90;;;13.59;100.00;99725.22;4152258;28;20026;-79
2021/10/29 02:57:34;;;;;;;21.05;8.90;;;14.20;99.90;;;13.61;100.00;99724.00;4152530;28;20112;-79
2021/10/29 02:59:35;;;;;;;13.48;8.25;;;14.20;99.90;;;13.64;100.00;99720.13;4151336;28;20049;-79
2021/10/29 03:01:37;;;;;;;16.80;8.23;;;14.20;99.90;;;13.62;100.00;99711.56;4149669;28;20025;-79
2021/10/29 03:03:38;;;;;;;15.52;7.40;;;14.20;99.90;;;13.64;100.00;99717.47;4151198;28;20034;-79
2021/10/29 03:05:41;;;;;;;18.30;9.15;;;14.20;99.90;;;13.72;100.00;99704.84;4141674;28;20097;-78
2021/10/29 03:07:43;;;;;;;19.13;9.18;;;14.20;99.90;;;13.79;100.00;99704.84;4167376;28;20022;-79
2021/10/29 03:09:44;;;;;;;27.98;10.30;;;14.30;99.90;;;13.74;100.00;99694.84;4147983;28;20053;-79
2021/10/29 03:11:45;;;;;;;15.38;9.25;;;14.30;99.90;;;13.75;100.00;99703.63;4139695;28;20037;-79
2021/10/29 03:13:46;;;;;;;15.95;8.23;;;14.30;99.90;;;13.77;100.00;99701.56;4152364;28;20032;-79
2021/10/29 03:15:49;;;;;;;23.20;8.90;;;14.30;99.90;;;13.77;100.00;99699.75;4152207;28;20058;-79
2021/10/29 03:17:50;;;;;;;18.95;8.75;;;14.30;99.90;;;13.77;100.00;99696.28;4150950;28;20030;-79
2021/10/29 03:19:51;;;;;;;18.92;8.38;;;14.30;99.90;;;13.80;100.00;99699.34;4151119;28;20095;-79
2021/10/29 03:21:51;;;;;;;19.70;9.93;;;14.30;99.90;;;13.68;100.00;99693.00;4142698;28;20091;-79
2021/10/29 03:23:52;;;;;;;18.75;8.95;;;14.30;99.90;;;13.65;100.00;99689.97;4152154;28;20028;-79
2021/10/29 03:25:54;;;;;;;19.92;9.10;;;14.30;99.90;;;13.65;100.00;99689.97;4150641;28;20475;-79
2021/10/29 03:27:55;;;;;;;16.27;7.28;;;14.30;99.90;;;13.63;100.00;99687.50;4167405;28;20077;-79
2021/10/29 03:29:57;;;;;;;18.02;9.23;;;14.30;99.90;;;13.70;100.00;99696.28;4142554;28;20033;-79
2021/10/29 03:31:58;;;;;;;20.48;8.60;;;14.30;99.90;;;13.75;100.00;99693.84;4152164;28;20120;-79
2021/10/29 03:33:59;;;;;;;22.73;9.07;;;14.30;99.90;;;13.64;100.00;99686.50;4152013;28;20042;-79
2021/10/29 03:36:00;;;;;;;22.67;9.40;;;14.30;99.90;;;13.58;100.00;99699.72;4150912;28;20069;-78
2021/10/29 03:42:30;;;;;;;18.13;9.07;;;14.20;99.90;;;13.65;100.00;99692.63;4151890;28;20056;-79
2021/10/29 03:46:41;;;;;;;22.33;8.65;;;14.30;99.90;;;13.79;100.00;99708.34;4155444;28;20034;-79
2021/10/29 03:49:00;;;;;;;19.17;6.97;;;14.40;99.90;;;13.79;100.00;99694.25;4155328;28;20066;-79
2021/10/29 03:51:06;;;;;;;15.77;4.45;;;14.40;99.90;;;13.71;100.00;99694.44;4156356;28;20029;-79
2021/10/29 03:53:12;;;;;;;13.63;4.28;;;14.40;99.90;;;13.67;100.00;99687.91;4154990;28;20034;-79
2021/10/29 03:55:13;;;;;;;8.15;4.60;;;14.30;99.90;;;13.70;100.00;99690.16;4153601;28;20069;-78
2021/10/29 03:57:27;;;;;;;11.27;4.22;;;14.30;99.90;;;13.71;100.00;99686.47;4154016;28;20109;-79
2021/10/29 03:59:30;;;;;;;13.13;4.35;;;14.30;99.90;;;13.72;100.00;99680.16;4154058;28;20480;-78
2021/10/29 04:01:31;;;;;;;14.20;4.68;;;14.30;99.90;;;13.72;100.00;99674.88;4137438;28;20104;-79
2021/10/29 04:03:31;;;;;;;14.25;4.70;;;14.30;99.90;;;13.73;100.00;99681.81;4140436;28;20030;-78
2021/10/29 04:05:34;;;;;;;8.82;4.75;;;14.30;99.90;;;13.68;100.00;99674.44;4155133;28;20022;-79
2021/10/29 04:07:35;;;;;;;16.13;5.53;;;14.30;99.90;;;13.66;100.00;99668.56;4153850;28;20374;-79
2021/10/29 04:09:36;;;;;;;12.35;5.10;;;14.30;99.90;;;13.71;100.00;99674.03;4153351;28;20029;-79
2021/10/29 04:11:38;;;;;;;15.35;5.40;;;14.30;99.90;;;13.80;100.00;99674.66;4154896;28;20405;-79
2021/10/29 04:13:43;;;;;;;11.23;4.95;;;14.30;99.90;;;13.81;100.00;99668.34;4153805;28;20021;-79
2021/10/29 04:15:45;;;;;;;10.93;5.13;;;14.40;99.90;;;13.80;100.00;99664.06;4146424;28;20054;-79
2021/10/29 04:17:46;;;;;;;16.25;5.47;;;14.30;99.90;;;13.82;100.00;99664.69;4150232;28;20077;-79
2021/10/29 04:19:47;;;;;;;16.42;5.22;;;14.40;99.90;;;13.82;100.00;99667.34;4153431;28;20143;-79
2021/10/29 04:21:49;;;;;;;14.85;6.60;;;14.40;99.90;;;13.84;100.00;99660.81;4186452;28;20427;-79
2021/10/29 04:23:49;;;;;;;11.65;6.07;;;14.40;99.90;;;13.86;100.00;99669.38;4153517;28;20026;-79
2021/10/29 04:25:50;;;;;;;19.77;7.28;;;14.40;99.90;;;13.84;100.00;99668.78;4150852;28;20033;-79
2021/10/29 04:28:11;;;;;;;16.00;7.60;;;14.40;99.90;;;13.84;100.00;99655.53;4154664;28;20054;-79
2021/10/29 04:30:18;;;;;;;17.85;8.55;;;14.40;99.90;;;13.81;100.00;99652.44;4151065;28;20486;-79
2021/10/29 04:32:19;;;;;;;21.48;8.80;;;14.50;99.90;;;13.87;100.00;99646.34;4151009;28;20026;-79
2021/10/29 04:34:23;;;;;;;16.15;7.65;;;14.40;99.90;;;13.85;100.00;99643.91;4154366;28;20405;-78
2021/10/29 04:36:24;;;;;;;22.20;10.00;;;14.50;99.90;;;13.91;100.00;99650.22;4153297;28;20510;-79
2021/10/29 04:38:26;;;;;;;23.55;9.27;;;14.50;99.90;;;13.83;100.00;99645.09;4130698;28;20062;-79
2021/10/29 04:40:27;;;;;;;23.05;9.55;;;14.50;99.90;;;13.80;100.00;99643.69;4169317;28;20036;-79
2021/10/29 04:42:28;;;;;;;22.92;8.93;;;14.40;99.90;;;13.71;100.00;99639.59;4169656;28;20017;-79
2021/10/29 04:44:28;;;;;;;24.35;9.77;;;14.40;99.90;;;13.81;100.00;99645.31;4143695;28;20064;-79
2021/10/29 04:46:31;;;;;;;19.70;9.70;;;14.40;99.90;;;13.79;100.00;99647.38;4153030;28;20026;-79
2021/10/29 04:48:32;;;;;;;20.95;9.00;;;14.40;99.90;;;13.90;100.00;99645.94;4154471;28;20018;-79
2021/10/29 04:50:33;;;;;;;24.67;10.38;;;14.40;99.90;;;13.89;100.00;99651.44;4154340;28;20113;-79
2021/10/29 04:52:34;;;;;;;26.13;10.30;;;14.50;99.90;;;13.80;100.00;99642.84;4152932;28;20058;-80
2021/10/29 04:54:35;;;;;;;17.63;8.73;;;14.50;99.90;;;13.84;100.00;99666.13;4152041;28;20170;-79
2021/10/29 04:56:36;;;;;;;19.73;6.22;;;14.50;99.90;;;13.79;100.00;99644.72;4136539;28;20030;-78
2021/10/29 04:58:37;;;;;;;18.70;5.53;;;14.50;99.90;;;13.74;100.00;99664.88;4152840;28;20041;-79
2021/10/29 05:00:38;;;;;;;16.60;5.03;;;14.40;99.90;;;13.74;100.00;99672.81;4152872;28;20022;-79
2021/10/29 05:02:39;;;;;;;17.02;4.70;;;14.40;99.90;;;13.66;100.00;99668.56;4143975;28;20026;-79
2021/10/29 05:04:41;;;;;;;11.80;3.80;;;14.30;99.90;;;13.61;100.00;99664.88;4152849;28;20034;-78
2021/10/29 05:06:42;;;;;;;14.23;3.50;;;14.30;99.90;;;13.63;100.00;99673.44;4152724;28;20034;-79
2021/10/29 05:08:43;;;;;;;10.80;3.92;;;14.30;99.90;;;13.67;100.00;99674.66;4152714;28;20547;-79
2021/10/29 05:10:44;;;;;;;12.65;4.18;;;14.30;99.90;;;13.57;100.00;99679.53;4153753;28;20065;-79
2021/10/29 05:12:48;;;;;;;11.13;3.63;;;14.20;99.90;;;13.56;100.00;99677.91;4152845;28;20065;-79
2021/10/29 05:14:49;;;;;;;13.38;4.10;;;14.10;99.90;;;13.42;100.00;99678.88;4151694;28;20092;-79
2021/10/29 05:16:50;;;;;;;17.98;5.00;;;14.10;99.90;;;13.34;100.00;99690.50;4158632;28;20037;-79
2021/10/29 05:18:51;;;;;;;12.52;3.38;;;14.00;99.90;;;13.38;100.00;99697.00;4152593;28;20088;-79
2021/10/29 05:20:53;;;;;;;6.90;3.15;;;13.90;99.90;;;13.37;100.00;99683.97;4132323;28;20473;-79
2021/10/29 05:22:53;;;;;;;14.85;3.55;;;13.90;99.90;;;13.35;100.00;99699.25;4152307;28;20113;-79
2021/10/29 05:24:54;;;;;;;12.68;4.00;;;13.90;99.90;;;13.28;100.00;99696.59;4153584;28;20481;-79
2021/10/29 05:26:55;;;;;;;17.42;3.40;;;13.90;99.90;;;13.22;100.00;99690.25;4152573;28;20034;-79
2021/10/29 05:28:56;;;;;;;13.18;3.35;;;13.80;99.90;;;13.26;100.00;99688.81;4152516;28;20064;-79
2021/10/29 05:30:57;;;;;;;12.02;3.40;;;13.80;99.90;;;13.27;100.00;99695.75;4153472;28;20025;-79
2021/10/29 05:32:58;;;;;;;12.25;2.85;;;13.80;99.90;;;13.18;100.00;99691.66;4136223;28;20085;-79
2021/10/29 05:35:02;;;;;;;11.55;3.35;;;13.80;99.90;;;13.22;100.00;99690.25;4152331;28;20485;-78
2021/10/29 05:37:04;;;;;;;9.73;2.92;;;13.80;99.90;;;13.22;100.00;99703.50;4152324;28;20030;-78
2021/10/29 05:39:05;;;;;;;13.63;2.60;;;13.70;99.90;;;13.19;100.00;99695.94;4152278;28;20076;-79
2021/10/29 05:41:06;;;;;;;9.50;2.20;;;13.80;99.90;;;13.17;100.00;99697.97;4152187;28;20030;-78
2021/10/29 05:43:07;;;;;;;16.15;3.55;;;13.70;99.90;;;13.14;100.00;99702.84;4152388;28;20029;-78
2021/10/29 05:45:11;;;;;;;12.57;3.10;;;13.60;99.90;;;13.07;100.00;99709.91;4153355;28;20033;-78
2021/10/29 05:47:12;;;;;;;12.77;2.90;;;13.60;99.90;;;12.98;100.00;99711.91;4152102;28;20026;-79
2021/10/29 05:49:15;;;;;;;11.50;2.88;;;13.60;99.90;;;13.09;100.00;99699.97;4152315;28;20405;-79
2021/10/29 05:51:15;;;;;;;15.75;2.95;;;13.50;99.90;;;13.04;100.00;99712.94;4152334;28;20042;-79
2021/10/29 05:55:31;;;;;;;15.20;2.67;;;13.50;99.90;;;12.97;100.00;99709.44;4165183;28;20132;-78
2021/10/29 05:57:33;;;;;;;14.57;2.67;;;13.50;99.90;;;12.97;100.00;99699.69;4126737;28;20030;-78
2021/10/29 05:59:35;;;;;;;14.88;2.95;;;13.40;99.90;;;12.95;100.00;99709.66;4152078;28;20029;-78
2021/10/29 06:01:36;;;;;;;22.05;3.25;;;13.40;99.90;;;12.85;100.00;99701.25;4151696;28;20030;-78
2021/10/29 06:03:37;;;;;;;13.70;2.50;;;13.40;99.90;;;12.87;100.00;99704.53;4140569;28;20504;-78
2021/10/29 06:05:39;;;;;;;12.90;2.97;;;13.40;99.90;;;12.87;100.00;99701.06;4153029;28;20137;-79
2021/10/29 06:07:40;;;;;;;23.63;5.28;;;13.40;99.90;;;12.94;100.00;99705.38;4153052;28;20032;-78
2021/10/29 06:09:41;;;;;;;15.73;3.30;;;13.40;99.90;;;12.90;100.00;99696.19;4151467;28;20033;-78
2021/10/29 06:11:42;;;;;;;21.00;3.20;;;13.40;99.90;;;12.95;100.00;99699.06;4140248;28;20030;-78
2021/10/29 06:13:43;;;;;;;15.20;3.53;;;13.40;99.90;;;13.00;100.00;99694.00;4151964;28;20041;-78
2021/10/29 06:15:46;;;;;;;13.90;2.60;;;13.40;99.90;;;13.05;100.00;99712.75;4146525;28;20474;-78
2021/10/29 06:17:47;;;;;;;18.90;4.07;;;13.40;99.90;;;13.00;100.00;99704.56;4151499;28;20397;-78
2021/10/29 06:19:48;;;;;;;14.60;3.05;;;13.40;99.90;;;12.85;100.00;99717.13;4122963;28;20030;-79
2021/10/29 06:24:07;;;;;;;19.77;3.08;;;13.30;99.90;;;12.80;100.00;99716.09;4146313;28;20080;-77
2021/10/29 06:26:19;;;;;;;15.25;3.70;;;13.30;99.90;;;12.77;100.00;99720.75;4151578;28;20574;-78
2021/10/29 06:28:28;;;;;;;16.48;2.97;;;13.20;99.90;;;12.63;100.00;99732.25;4151765;28;20077;-78
2021/10/29 06:30:30;;;;;;;20.52;4.15;;;13.20;99.90;;;12.51;100.00;99723.25;4151654;28;20033;-78
2021/10/29 06:32:31;;;;;;;21.80;3.65;;;13.10;99.90;;;12.73;100.00;99730.09;4151377;28;20065;-77
2021/10/29 06:34:37;;;;;;;23.42;3.17;;;13.10;99.90;;;12.66;100.00;99736.38;4151542;28;20477;-78
2021/10/29 06:36:39;;;;;;;17.80;4.03;;;13.20;99.90;;;12.82;100.00;99741.34;4151527;28;20057;-78
2021/10/29 06:38:41;;;;;;;17.63;2.70;;;13.10;99.90;;;12.82;100.00;99735.22;4152637;28;20029;-78
2021/10/29 06:40:47;;;;;;;20.63;3.22;;;13.20;99.90;;;12.74;100.00;99738.84;4151047;28;20030;-79
2021/10/29 06:42:55;;;;;;;23.98;4.93;;;13.20;99.90;;;12.72;100.00;99730.31;4151407;28;20161;-78
2021/10/29 07:01:14;;;;;;;15.95;4.32;;;13.20;99.90;;;12.72;100.00;99759.41;4152238;28;20444;-78
2021/10/29 07:12:27;;;;;;;17.35;2.65;;;13.00;99.90;;;12.55;100.00;99789.78;4148655;28;20056;-78
2021/10/29 07:40:10;;;;;;;20.23;4.03;;;13.30;99.90;;;12.83;100.00;99837.44;4145107;28;20033;-78
2021/10/29 07:42:13;;;;;;;16.88;3.25;;;13.40;99.90;;;12.81;100.00;99852.69;4149882;28;20030;-78
2021/10/29 07:44:16;;;;;;;17.48;4.13;;;13.40;99.90;;;12.81;100.00;99855.34;4138276;28;20049;-78
2021/10/29 07:46:18;;;;;;;24.50;6.15;;;13.50;99.90;;;12.85;100.00;99865.34;4143192;28;20021;-78
2021/10/29 07:48:19;;;;;;;19.83;4.57;;;13.50;99.90;;;12.85;100.00;99873.28;4150544;28;20114;-78
2021/10/29 07:50:20;;;;;;;18.02;5.25;;;13.50;99.90;;;12.86;100.00;99872.28;4149530;28;20030;-78
2021/10/29 07:52:21;;;;;;;14.20;5.10;;;13.50;99.90;;;13.00;100.00;99883.78;4150360;28;20193;-78
2021/10/29 07:54:24;;;;;;;24.27;6.75;;;13.50;99.90;;;12.82;100.00;99878.97;4142702;28;20025;-78
2021/10/29 07:56:25;;;;;;;27.15;7.72;;;13.50;99.90;;;12.84;100.00;99886.72;4150524;28;20405;-78
2021/10/29 07:58:27;;;;;;;16.08;4.88;;;13.50;99.90;;;12.87;100.00;99884.50;4149014;28;20030;-78
2021/10/29 08:00:28;;;;;;;15.38;3.72;;;13.50;99.90;;;12.95;100.00;99880.91;4150672;28;20080;-78
2021/10/29 08:02:30;;;;;;;13.23;3.63;;;13.50;99.90;;;13.03;100.00;99894.81;4141750;28;20423;-78
2021/10/29 08:04:31;;;;;;;18.98;4.32;;;13.60;99.90;;;13.03;100.00;99884.22;4145211;28;20057;-78
2021/10/29 08:06:33;;;;;;;11.18;2.95;;;13.60;99.90;;;13.07;100.00;99896.06;4150438;28;20030;-78
2021/10/29 08:08:34;;;;;;;18.33;2.75;;;13.80;99.90;;;13.17;100.00;99893.13;4141193;28;20018;-78
2021/10/29 08:10:35;;;;;;;19.75;3.05;;;13.80;99.90;;;13.28;100.00;99904.00;4142775;28;20382;-78
2021/10/29 08:12:39;;;;;;;11.35;2.58;;;13.90;99.90;;;13.36;100.00;99903.00;4150354;28;20057;-78
2021/10/29 08:14:40;;;;;;;15.23;3.55;;;14.00;99.90;;;13.39;100.00;99904.44;4132402;28;20032;-78
2021/10/29 08:16:42;;;;;;;10.88;2.35;;;14.10;99.90;;;13.43;100.00;99906.53;4140301;28;20509;-78
2021/10/29 08:18:45;;;;;;;11.98;3.20;;;14.20;99.90;;;13.43;100.00;99911.81;4151610;28;20025;-78
2021/10/29 08:20:46;;;;;;;13.70;3.00;;;14.20;99.90;;;13.55;100.00;99922.69;4151491;28;20080;-78
2021/10/29 08:22:47;;;;;;;9.85;2.03;;;14.30;99.90;;;13.59;100.00;99918.66;4150166;28;20025;-78
2021/10/29 08:24:47;;;;;;;16.80;3.10;;;14.30;99.90;;;13.65;100.00;99921.31;4123071;28;20034;-78
2021/10/29 08:26:48;;;;;;;13.82;3.03;;;14.40;99.90;;;13.50;100.00;99927.78;4143474;28;20029;-78
2021/10/29 08:28:49;;;;;;;14.48;3.50;;;14.40;99.90;;;13.43;100.00;99921.59;4150407;28;20429;-78
2021/10/29 08:30:51;;;;;;;11.38;2.38;;;14.40;99.90;;;13.51;100.00;99916.97;4151807;28;20061;-78
2021/10/29 08:32:53;;;;;;;9.02;2.22;;;14.40;99.90;;;13.55;100.00;99912.09;4153461;28;20417;-78
2021/10/29 08:34:54;;;;;;;8.40;2.00;;;14.40;99.90;;;13.70;100.00;99923.41;4146183;28;20038;-78
2021/10/29 08:37:01;;;;;;;7.25;2.13;;;14.40;99.90;;;13.59;100.00;99931.91;4153030;28;20185;-78
2021/10/29 08:39:02;;;;;;;13.85;2.38;;;14.40;99.90;;;13.49;100.00;99918.19;4137198;28;20033;-78
2021/10/29 08:41:03;;;;;;;13.05;3.20;;;14.40;99.90;;;13.62;100.00;99923.56;4154196;28;20026;-78
2021/10/29 08:43:04;;;;;;;11.35;2.10;;;14.50;99.90;;;13.62;100.00;99924.34;4153123;28;20089;-77
2021/10/29 08:45:08;;;;;;;8.55;2.03;;;14.40;99.90;;;13.58;100.00;99935.56;4152980;28;20037;-78
2021/10/29 08:47:09;;;;;;;9.43;2.13;;;14.40;99.90;;;13.68;100.00;99942.13;4152864;28;20100;-78
2021/10/29 08:49:12;;;;;;;10.15;2.50;;;14.60;99.90;;;13.79;100.00;99936.28;4154163;28;20026;-78
2021/10/29 08:51:13;;;;;;;10.43;2.35;;;14.60;99.90;;;13.84;100.00;99938.34;4154109;28;20125;-79
2021/10/29 08:53:14;;;;;;;12.25;2.53;;;14.70;99.90;;;13.77;100.00;99940.13;4153596;28;20104;-78
2021/10/29 08:55:23;;;;;;;7.90;2.72;;;14.70;99.90;;;13.96;100.00;99944.72;4152406;28;20424;-78
2021/10/29 08:57:26;;;;;;;14.05;2.95;;;14.80;99.90;;;14.04;100.00;99951.69;4152635;28;20073;-78
2021/10/29 08:59:36;;;;;;;9.38;1.98;;;14.80;99.90;;;13.76;100.00;99947.28;4152808;28;20032;-77
2021/10/29 09:02:08;;;;;;;9.95;2.33;;;14.80;99.90;;;13.90;100.00;99950.81;4153351;28;20022;-78
2021/10/29 09:04:10;;;;;;;8.35;2.20;;;14.90;99.90;;;14.05;100.00;99945.38;4145633;28;20034;-78
2021/10/29 09:08:30;;;;;;;6.88;1.60;;;15.00;99.90;;;14.09;100.00;99942.16;4152039;28;20061;-77
2021/10/29 09:31:39;;;;;;;8.73;2.08;;;15.60;99.90;;;14.36;100.00;99956.34;4150025;28;20080;-77
2021/10/29 09:33:47;;;;;;;12.93;2.35;;;15.60;99.90;;;14.62;100.00;99955.59;4146582;28;20397;-78
2021/10/29 09:35:48;;;;;;;7.13;1.88;;;15.60;99.90;;;14.56;100.00;99956.41;4150441;28;20453;-78
2021/10/29 09:38:10;;;;;;;9.80;2.97;;;15.60;99.90;;;14.74;100.00;99949.50;4152165;28;20026;-78
2021/10/29 09:40:13;;;;;;;15.98;2.28;;;15.80;99.90;;;14.88;100.00;99966.25;4145957;28;20077;-78
2021/10/29 09:42:17;;;;;;;8.50;2.55;;;15.80;99.90;;;14.43;100.00;99972.25;4152900;28;20028;-77
2021/10/29 09:44:19;;;;;;;10.30;2.15;;;15.80;99.90;;;14.48;100.00;99969.84;4153419;28;20022;-77
2021/10/29 09:46:40;;;;;;;12.77;2.03;;;15.70;99.90;;;14.62;100.00;99982.13;4153368;28;20436;-78
2021/10/29 09:48:45;;;;;;;9.07;2.38;;;15.70;99.90;;;14.78;100.00;99973.81;4151994;28;20037;-78
2021/10/29 09:50:53;;;;;;;13.35;3.78;;;15.80;99.90;;;14.70;100.00;99982.75;4136158;28;20034;-78